IRONMAN Tallinn 2018
Skip Navigation Links
Results
Course Map
Details
4 Aug 2018
HyperLink
Page 1 of 4 (197 items)
[1]234
Pos
Race No
Fav
Name
Time
Category
Cat Pos
Gender
Gen Pos
Club
Country
Pace
Run 2.7km
Finish
110Andry Soo00:13:42All Ages1Male1 EST  00:09:1200:13:38
2151Tarvi Tameri00:13:44All Ages2Male2 EST  00:09:0900:13:38
3164Taavi Tali00:14:36All Ages3Male3 EST  00:09:3700:14:32
4120Toms Pastars00:14:45All Ages4Male4 LAT  00:09:4100:14:42
5116Russell Gibson00:14:50All Ages5Male5 GBR  00:09:4300:14:45
6178Margus Ader00:14:52All Ages6Male6 EST  00:10:1100:14:46
7134Marek Tõnismäe00:15:19All Ages7Male7 EST  00:09:5400:15:15
868Krister Haav00:15:59All Ages8Male8 EST  00:10:3300:15:53
9192Priit Kajari00:16:17All Ages9Male9 EST  00:11:0100:16:10
1050Martin Grand00:16:25All Ages10Male10 EST  00:10:3400:16:10
1126Einar Hillep00:16:28All Ages11Male11 EST  00:11:1000:16:23
12194Andrea Meromi00:16:39All Ages12Male12 ITA  00:10:2700:16:31
1363Sander Savastver00:16:52All Ages13Male13 EST  00:11:0700:16:48
14118Anna Temkina00:16:59All Ages1Female1 RUS  00:11:1600:16:52
1536Yelena Petrova00:17:08All Ages2Female2 CYP  00:11:0800:17:04
1675Margus Raud00:17:30All Ages14Male14 EST  00:11:1400:17:22
1713Liina Malva00:17:32All Ages3Female3 EST  00:11:3000:17:28
1838Max Markov00:17:37All Ages15Male15 RUS  00:11:4900:17:31
19143Ville Salk00:17:47All Ages16Male16 EST  00:12:0400:17:43
20193Sven Sarapuu00:17:53All Ages17Male17 EST  00:11:4400:17:48
21142Rene Salk00:17:56All Ages18Male18 EST  00:12:0300:17:50
2267Ivo Velt00:17:56All Ages19Male19 EST  00:12:0300:17:47
23104Aksel Kurs00:18:12All Ages4Female4Ujumise SpordiklubiEST  00:12:0500:18:12
2433Richard Vlassov00:18:19All Ages20Male20 EST  00:12:3800:18:16
25138Julia Selezjova00:18:21All Ages5Female5 EST  00:12:0500:18:12
26113Maano Päeren00:18:27All Ages21Male21 EST  00:12:3300:18:19
27121Tanel Israel00:18:27All Ages22Male22 EST  00:12:1200:18:17
28132Fujen Hu00:18:35All Ages23Male23 TPE  00:11:4700:18:29
29165Mari-Liis Liipa00:18:43All Ages6Female6 EST  00:12:1300:18:34
30166Üllar Gustavson00:18:43All Ages24Male24 EST  00:12:1800:18:37
31156Tatjana Jatsenko00:18:44All Ages7Female7 EST  00:12:4400:18:32
3291Nikolay Sekachev00:18:54All Ages25Male25 RUS  00:12:5300:18:48
3384Martin Treumann00:18:56All Ages26Male26 EST  00:12:5000:18:54
3448Tea Mey00:18:57All Ages8Female8 EST  00:12:5000:18:52
3574Kristiina Ranne00:19:01All Ages9Female9 EST  00:12:2000:18:58
3632Dagmar Vlassov00:19:07All Ages10Female10 EST  00:12:3800:19:03
3734Christofer Tüll00:19:07All Ages27Male27 EST  00:12:3900:19:04
3872NadeĹžda Pupina00:19:12All Ages11Female11 EST  00:12:4400:19:09
39129Marika Roopärg00:19:17All Ages12Female12 EST  00:12:5100:19:09
40148Ardo Ainsaar00:19:25All Ages28Male28 EST  00:13:3100:19:21
4152Kersti Marmor00:19:44All Ages13Female13 EST  00:13:1100:19:33
42171Kaarel Svätski00:19:45All Ages29Male29 EST  00:12:3800:19:26
4389Andres Noole00:19:58All Ages30Male30 EST  00:13:0100:19:56
44157Kaur Kalviste00:20:00All Ages31Male31 EST  00:12:5200:19:58
45123Aet Kiisla00:20:02All Ages14Female14 EST  00:13:0100:19:55
46196Kaspar Raats00:20:07All Ages32Male32   00:13:1400:19:54
4745Mariliis Beger00:20:12All Ages15Female15 EST  00:13:1400:20:02
4869Kerli Haav00:20:13All Ages16Female16 EST  00:13:3600:20:06
49161Margus Leisberg00:20:24All Ages33Male33 EST  00:13:3900:20:16
50184Olga Sumanova00:20:26All Ages17Female17 EST  00:13:4200:20:23
Page 1 of 4 (197 items)
[1]234

HyperLink Copyright (c) G Vincent, 2018